createdAt,value
2022-10-25T00:02:15.544Z,11.2
2022-10-25T00:07:15.391Z,11.1
2022-10-25T00:13:05.088Z,11.2
2022-10-25T00:18:15.351Z,11.1
2022-10-25T00:23:15.366Z,11.3
2022-10-25T00:29:05.077Z,11.1
2022-10-25T00:34:15.355Z,11.1
2022-10-25T00:39:15.363Z,11.2
2022-10-25T00:45:05.068Z,11.3
2022-10-25T00:50:15.358Z,11.3
2022-10-25T00:56:05.073Z,11.2
2022-10-25T01:01:05.549Z,11.2
2022-10-25T01:06:15.404Z,11.1
2022-10-25T01:12:04.866Z,11.1
2022-10-25T01:17:15.355Z,11.1
2022-10-25T01:22:15.413Z,11.1
2022-10-25T01:28:04.905Z,11.2
2022-10-25T01:33:04.914Z,11.3
2022-10-25T01:38:05.090Z,11.2
2022-10-25T01:43:15.393Z,11.3
2022-10-25T01:49:05.116Z,11.2
2022-10-25T01:54:15.387Z,11.2
2022-10-25T02:00:05.096Z,11.2
2022-10-25T02:05:05.160Z,11.2
2022-10-25T02:10:15.416Z,11.4
2022-10-25T02:16:04.881Z,11.3
2022-10-25T02:21:04.895Z,11.3
2022-10-25T02:26:15.236Z,11.5
2022-10-25T02:31:15.234Z,11.4
2022-10-25T02:37:04.895Z,11.3
2022-10-25T02:42:15.279Z,11.3
2022-10-25T02:48:04.851Z,11.5
2022-10-25T02:53:04.880Z,11.4
2022-10-25T02:58:15.202Z,11.4
2022-10-25T03:04:04.991Z,11.4
2022-10-25T03:09:15.220Z,11.4
2022-10-25T03:15:04.897Z,11.6
2022-10-25T03:20:04.933Z,11.4
2022-10-25T03:25:05.032Z,11.3
2022-10-25T03:30:15.245Z,11.4
2022-10-25T03:35:15.332Z,11.5
2022-10-25T03:40:15.390Z,11.3
2022-10-25T03:46:05.148Z,11.2
2022-10-25T03:51:15.367Z,11.2
2022-10-25T03:57:05.143Z,11.2
2022-10-25T04:02:05.272Z,11.4
2022-10-25T04:07:15.379Z,11.2
2022-10-25T04:13:05.105Z,11.3
2022-10-25T04:18:15.267Z,11.3
2022-10-25T04:23:15.414Z,11.3
2022-10-25T04:29:04.919Z,11.2
2022-10-25T04:34:05.099Z,11.4
2022-10-25T04:39:05.086Z,11.3
2022-10-25T04:44:05.172Z,11.2
2022-10-25T04:49:15.403Z,11.2
2022-10-25T04:55:05.118Z,11.2
2022-10-25T05:00:15.390Z,11.3
2022-10-25T05:06:05.099Z,11.3
2022-10-25T05:11:15.429Z,11.2
2022-10-25T05:17:04.923Z,11
2022-10-25T05:22:05.122Z,10.9
2022-10-25T05:27:05.141Z,11.3
2022-10-25T05:32:05.926Z,11.4
2022-10-25T05:37:15.484Z,11.3
2022-10-25T05:43:04.969Z,11.3
2022-10-25T05:48:04.958Z,11.4
2022-10-25T05:53:05.023Z,11.6
2022-10-25T05:58:05.119Z,11.3
2022-10-25T06:03:15.385Z,11.4
2022-10-25T06:09:04.944Z,11.4
2022-10-25T06:14:05.072Z,11.4
2022-10-25T06:19:05.243Z,11.2
2022-10-25T06:24:15.418Z,11.2
2022-10-25T06:30:05.121Z,11.3
2022-10-25T06:35:15.395Z,11.2
2022-10-25T06:41:05.099Z,11.1
2022-10-25T06:46:05.087Z,11.2
2022-10-25T06:51:15.449Z,11.4
2022-10-25T06:57:05.200Z,11.5
2022-10-25T07:02:05.365Z,11.6
2022-10-25T07:07:05.310Z,11.6
2022-10-25T07:12:15.258Z,11.8
2022-10-25T07:18:05.105Z,11.9
2022-10-25T07:23:06.620Z,11.9
2022-10-25T07:28:05.798Z,11.8
2022-10-25T07:33:15.391Z,11.8
2022-10-25T07:38:15.437Z,11.7
2022-10-25T07:43:15.489Z,11.9
2022-10-25T07:49:05.100Z,12.2
2022-10-25T07:54:15.446Z,12.1
2022-10-25T08:00:05.130Z,11.9
2022-10-25T08:05:05.132Z,12.1
2022-10-25T08:10:05.172Z,12.1
2022-10-25T08:15:15.377Z,12.1
2022-10-25T08:20:15.449Z,12
2022-10-25T08:26:04.927Z,12.1
2022-10-25T08:31:15.517Z,12
2022-10-25T08:37:04.996Z,12.3
2022-10-25T08:42:15.193Z,12.2
2022-10-25T08:47:15.223Z,12.3
2022-10-25T08:52:17.371Z,12.2
2022-10-25T08:58:04.935Z,12
2022-10-25T09:03:04.991Z,11.7
2022-10-25T09:08:15.196Z,11.7
2022-10-25T09:14:05.263Z,11.7
2022-10-25T09:19:15.306Z,11.7
2022-10-25T09:24:15.283Z,11.9
2022-10-25T09:30:07.298Z,11.7
2022-10-25T09:35:05.539Z,11.8
2022-10-25T09:40:15.257Z,11.8
2022-10-25T09:46:05.103Z,11.7
2022-10-25T09:51:15.331Z,11.7
2022-10-25T09:56:15.394Z,11.6
2022-10-25T10:01:15.550Z,11.6
2022-10-25T10:07:05.008Z,11.5
2022-10-25T10:12:15.447Z,11.3
2022-10-25T10:18:04.994Z,11.3
2022-10-25T10:23:07.846Z,11.5
2022-10-25T10:28:15.251Z,11.5
2022-10-25T10:34:05.202Z,11.3
2022-10-25T10:39:15.494Z,11.4
2022-10-25T10:45:05.221Z,11.4
2022-10-25T10:50:25.162Z,11.6
2022-10-25T10:56:05.195Z,11.2
2022-10-25T11:01:15.600Z,11.6
2022-10-25T11:07:04.999Z,11.5
2022-10-25T11:12:05.141Z,11.4
2022-10-25T11:17:05.783Z,11.2
2022-10-25T11:22:15.424Z,11.4
2022-10-25T11:27:15.565Z,11
2022-10-25T11:33:05.151Z,10.4
2022-10-25T11:38:15.235Z,10.6
2022-10-25T11:44:05.268Z,10.7
2022-10-25T11:49:05.243Z,10.5
2022-10-25T11:54:15.435Z,11
2022-10-25T11:59:15.574Z,11.2
2022-10-25T12:05:05.140Z,10.6
2022-10-25T12:10:05.241Z,10.9
2022-10-25T12:15:15.585Z,10.7
2022-10-25T12:21:05.764Z,10.5
2022-10-25T12:26:15.516Z,10.9
2022-10-25T12:32:05.299Z,10.8
2022-10-25T12:37:05.200Z,11
2022-10-25T12:42:15.491Z,10.5
2022-10-25T12:48:05.115Z,10.8
2022-10-25T12:53:05.186Z,10.6
2022-10-25T12:58:15.475Z,10.5
2022-10-25T13:03:19.273Z,10.2
2022-10-25T13:09:05.162Z,10.6
2022-10-25T13:14:05.178Z,10.5
2022-10-25T13:19:21.717Z,10.6
2022-10-25T13:24:15.487Z,10.5
2022-10-25T13:30:05.336Z,10.4
2022-10-25T13:35:15.364Z,10.3
2022-10-25T13:40:15.480Z,10.3
2022-10-25T13:46:05.008Z,10.6
2022-10-25T13:51:05.397Z,10.9
2022-10-25T13:56:05.283Z,10.5
2022-10-25T14:01:15.685Z,10.6
2022-10-25T14:07:05.286Z,10.7
2022-10-25T14:12:16.745Z,10.3
2022-10-25T14:18:05.171Z,11.2
2022-10-25T14:23:05.197Z,11
2022-10-25T14:28:15.490Z,11
2022-10-25T14:34:05.039Z,10.8
2022-10-25T14:39:15.505Z,10.4
2022-10-25T14:45:04.975Z,10.3
2022-10-25T14:55:15.336Z,10.4
2022-10-25T15:01:05.097Z,10.6
2022-10-25T15:06:05.399Z,10.3
2022-10-25T15:11:15.308Z,10.3
2022-10-25T15:16:15.295Z,10.1
2022-10-25T15:22:05.018Z,10.2
2022-10-25T15:27:15.304Z,10.2
2022-10-25T15:33:04.980Z,10
2022-10-25T15:38:04.993Z,10.4
2022-10-25T15:43:05.045Z,10.2
2022-10-25T15:48:15.345Z,10.1
2022-10-25T15:54:04.993Z,10.2
2022-10-25T15:59:05.142Z,10.1
2022-10-25T16:04:05.220Z,10.3
2022-10-25T16:09:05.337Z,10.2
2022-10-25T16:14:15.375Z,10.3
2022-10-25T16:19:15.357Z,10.5
2022-10-25T16:25:05.220Z,10.4
2022-10-25T16:30:15.508Z,10.5
2022-10-25T16:36:05.282Z,10.5
2022-10-25T16:41:15.502Z,10.4
2022-10-25T16:47:05.323Z,10.4
2022-10-25T16:52:15.378Z,10.2
2022-10-25T16:57:15.512Z,10.2
2022-10-25T17:02:15.674Z,10.4
2022-10-25T17:08:05.289Z,10.3
2022-10-25T17:13:15.501Z,10.5
2022-10-25T17:18:16.122Z,10.6
2022-10-25T17:23:15.517Z,10.4
2022-10-25T17:28:24.616Z,10.5
2022-10-25T17:34:05.241Z,10.4
2022-10-25T17:39:05.209Z,10.3
2022-10-25T17:44:15.515Z,10.3
2022-10-25T17:50:05.219Z,10.1
2022-10-25T17:55:05.199Z,10.1
2022-10-25T18:00:05.247Z,10.1
2022-10-25T18:05:20.292Z,10.1
2022-10-25T18:11:05.015Z,10.1
2022-10-25T18:16:15.525Z,10.1
2022-10-25T18:22:05.253Z,10.1
2022-10-25T18:27:05.249Z,10.1
2022-10-25T18:32:15.538Z,10
2022-10-25T18:38:05.306Z,9.9
2022-10-25T18:43:15.485Z,9.8
2022-10-25T18:48:15.525Z,9.8
2022-10-25T18:53:15.565Z,9.7
2022-10-25T18:59:04.997Z,9.8
2022-10-25T19:04:05.032Z,9.7
2022-10-25T19:09:15.559Z,9.5
2022-10-25T19:15:05.033Z,9.4
2022-10-25T19:20:15.477Z,9.4
2022-10-25T19:25:17.295Z,9.5
2022-10-25T19:30:15.520Z,9.5
2022-10-25T19:36:04.978Z,9.4
2022-10-25T19:41:05.243Z,9.1
2022-10-25T19:46:05.220Z,9
2022-10-25T19:51:05.243Z,8.8
2022-10-25T19:56:15.564Z,8.9
2022-10-25T20:02:05.357Z,8.8
2022-10-25T20:07:05.257Z,8.6
2022-10-25T20:12:15.529Z,8.8
2022-10-25T20:17:15.516Z,8.6
2022-10-25T20:23:05.241Z,8.6
2022-10-25T20:28:15.502Z,8.5
2022-10-25T20:34:05.244Z,8.3
2022-10-25T20:39:15.328Z,8.3
2022-10-25T20:44:15.335Z,8.5
2022-10-25T20:49:15.354Z,8.4
2022-10-25T20:54:15.511Z,8.5
2022-10-25T20:59:15.535Z,8.6
2022-10-25T21:05:05.079Z,8.7
2022-10-25T21:10:05.082Z,8.9
2022-10-25T21:15:15.311Z,8.9
2022-10-25T21:20:15.447Z,8.7
2022-10-25T21:26:05.055Z,8.7
2022-10-25T21:31:15.299Z,8.8
2022-10-25T21:36:15.377Z,8.6
2022-10-25T21:42:05.060Z,8.6
2022-10-25T21:47:15.299Z,8.6
2022-10-25T21:53:05.037Z,8.7
2022-10-25T21:58:05.017Z,8.7
2022-10-25T22:03:05.048Z,8.6
2022-10-25T22:08:15.354Z,9
2022-10-25T22:13:15.360Z,9.1
2022-10-25T22:19:05.232Z,9.2
2022-10-25T22:24:15.377Z,9.1
2022-10-25T22:29:15.477Z,9.1
2022-10-25T22:34:15.547Z,9.2
2022-10-25T22:39:15.549Z,9.1
2022-10-25T22:45:05.262Z,9.3
2022-10-25T22:50:05.414Z,9.3
2022-10-25T22:55:15.494Z,9.4
2022-10-25T23:00:15.529Z,9.3
2022-10-25T23:05:15.563Z,9.4
2022-10-25T23:11:05.235Z,9.4
2022-10-25T23:16:05.242Z,9.3
2022-10-25T23:21:15.534Z,9.5
2022-10-25T23:26:15.635Z,9.5
2022-10-25T23:32:05.074Z,9.4
2022-10-25T23:37:05.107Z,9.4
2022-10-25T23:42:15.545Z,9.4
2022-10-25T23:48:05.055Z,9.5
2022-10-25T23:53:05.352Z,9.6
2022-10-25T23:58:15.500Z,9.5
